VE3BAY Weather Reports


Display with metric or nautical units.
time (UTC)temp
F
wind
direction
speed
MPH
gust
MPH
rain 1hr
in
rain 24hr
in
rain mn
in
humidity
%
barometer
mb
20190818103641 71 0 0.0 0.0 133.36 0.00 0.31 97 1015.3
20190818095139 71 0 0.0 0.0 133.35 0.00 0.30 97 1015.5
20190818093640 71 0 0.0 0.0 133.35 0.00 0.30 97 1015.4
20190818092138 71 0 0.0 0.0 133.35 0.00 0.30 98 1015.5
20190818090639 73 0 0.0 0.0 133.34 0.00 0.29 96 1015.3
20190818082139 73 0 0.0 0.0 133.32 0.00 0.27 98 1014.8
20190818073639 72 0 0.0 0.0 133.32 0.00 0.27 98 1015.3
20190818070639 71 0 0.0 0.0 133.32 0.00 0.27 98 1015.4
20190818062139 71 0 0.0 0.0 133.31 0.00 0.26 97 1015.7
20190818055139 70 0 0.0 0.0 133.31 0.00 0.26 98 1015.8
20190818045140 72 0 0.0 0.0 133.26 0.00 0.21 96 1016.0
20190818042140 74 0 0.0 0.0 133.05 0.00 0.00 97 1015.9
20190818032140 74 0 0.0 0.0 133.05 0.00 0.02 97 1015.6
20190818025140 74 0 0.0 0.0 133.05 0.00 0.02 96 1015.5
20190818023641 74 0 0.0 0.0 133.05 0.00 0.02 96 1015.8
20190818015139 74 0 0.0 0.0 133.05 0.00 0.02 96 1015.3
20190818012139 74 0 0.0 0.0 133.05 0.00 0.02 95 1014.9
20190818005139 74 0 0.0 0.0 133.05 0.00 0.02 95 1014.7
20190818003639 74 0 0.0 0.0 133.05 0.00 0.02 95 1014.6
20190818002139 74 0 0.0 0.0 133.05 0.00 0.02 94 1014.6
20190818000639 75 0 0.0 0.0 133.05 0.00 0.02 94 1014.6
20190817235139 75 0 0.0 0.0 133.05 0.00 0.02 93 1014.6
20190817233639 75 0 0.0 0.0 133.05 0.00 0.02 93 1014.5
20190817232140 76 0 0.0 0.0 133.05 0.00 0.02 93 1014.6
20190817225140 76 0 0.0 0.0 133.05 0.00 0.02 93 1014.5
20190817223639 76 0 0.0 0.0 133.05 0.00 0.02 93 1014.6
20190817222141 76 0 0.0 0.0 133.05 0.00 0.02 92 1014.7
20190817220640 77 0 0.0 0.0 133.05 0.00 0.02 91 1014.7
20190817215139 77 0 0.0 0.0 133.05 0.00 0.02 92 1014.8
20190817213639 77 0 0.0 0.0 133.05 0.00 0.02 92 1014.8
20190817212142 77 0 0.0 0.0 133.05 0.00 0.02 91 1014.7
20190817210639 77 0 0.0 0.0 133.05 0.00 0.02 91 1014.8
20190817205139 77 0 0.0 0.0 133.05 0.00 0.02 91 1014.7
20190817203640 77 0 0.0 0.0 133.05 0.00 0.02 91 1014.6
20190817202140 77 0 0.0 0.0 133.05 0.00 0.02 91 1014.5
20190817200640 77 0 0.0 0.0 133.05 0.00 0.02 92 1014.6
20190817195140 76 0 0.0 0.0 133.05 0.00 0.02 92 1014.9
20190817190641 76 0 0.0 0.0 133.05 0.00 0.02 91 1015.5
20190817183641 76 0 0.0 0.0 133.05 0.00 0.02 91 1015.6
20190817165141 75 0 0.0 0.0 133.05 0.00 0.02 93 1015.0
20190817142141 74 0 0.0 0.0 133.05 0.00 0.02 93 1015.2
20190817135140 74 0 0.0 0.0 133.03 0.00 0.00 90 1015.0
20190817133642 74 0 0.0 0.0 133.03 0.00 0.00 90 1015.0
20190817130640 74 0 0.0 0.0 133.03 0.00 0.00 90 1014.8
20190817123641 74 0 0.0 0.0 133.03 0.00 0.00 90 1014.4
20190817120640 72 0 0.0 0.0 133.03 0.00 0.00 92 1014.2
20190817115141 72 0 0.0 0.0 133.03 0.00 0.00 93 1014.1